KJKL

Julian Carroll Airport

Jackson, Kentucky, USA
METAR KJKL 182336Z AUTO 00000KT 10SM FEW011 BKN017 OVC070 24/22 A2994 RMK AO2 RAB12E30 P0000 T02390222
Observed Flight Rules
Aug-18 @ 23:36 UTC (9 minutes ago) Marginal Visual Flight Rules
Visibility Clouds
10 miles
  • Few at 1,100' AGL
  • Broken at 1,700' AGL
  • Overcast at 7,000' AGL
Temperatures Readings Precipitation
Current 24°C / 75°F
Dewpoint 22°C / 72°F
Humidity 89%
Altimeter 29.94" Hg
Pressure 1014 hPa
Elevation 416
Current Rain 0.005
METAR KJKL 182336Z AUTO 00000KT 10SM FEW011 BKN017 OVC070 24/22 A2994 RMK AO2 RAB12E30 P0000 T02390222
Observed Flight Rules
Aug-18 @ 23:36 UTC
(9 minutes ago)
MVFR
Clouds
  • Few at 1,100' AGL
  • Broken at 1,700' AGL
  • Overcast at 7,000' AGL
Temperature Dewpoint
24°C / 75°F 22°C / 72°F
Humidity Altimeter Pressure
89% 29.94" Hg 1014 hPa
Current Rain
0.005